createdAt,value
2022-10-31T00:00:49.090Z,48.63
2022-10-31T00:03:16.719Z,57.47
2022-10-31T00:05:50.512Z,66.55
2022-10-31T00:08:18.596Z,11.18
2022-10-31T00:10:46.418Z,12.73
2022-10-31T00:13:15.181Z,29.73
2022-10-31T00:15:42.342Z,51.53
2022-10-31T00:18:09.978Z,59.10
2022-10-31T00:20:36.946Z,49.22
2022-10-31T00:23:05.239Z,42.53
2022-10-31T00:25:36.718Z,48.45
2022-10-31T00:28:05.048Z,27.55
2022-10-31T00:30:31.741Z,31.63
2022-10-31T00:32:58.508Z,38.88
2022-10-31T00:35:25.339Z,38.88
2022-10-31T00:37:53.358Z,18.85
2022-10-31T00:40:19.917Z,26.05
2022-10-31T00:42:46.412Z,7.65
2022-10-31T00:45:13.233Z,63.55
2022-10-31T00:47:39.813Z,23.10
2022-10-31T00:50:07.105Z,8.20
2022-10-31T00:52:34.056Z,34.75
2022-10-31T00:55:00.570Z,18.08
2022-10-31T00:57:27.095Z,10.85
2022-10-31T00:59:53.648Z,9.10
2022-10-31T01:02:20.416Z,11.48
2022-10-31T01:04:47.101Z,18.30
2022-10-31T01:07:15.011Z,77.53
2022-10-31T01:09:41.943Z,53.20
2022-10-31T01:12:08.777Z,40.40
2022-10-31T01:14:35.305Z,26.08
2022-10-31T01:17:01.926Z,56.83
2022-10-31T01:19:28.637Z,31.10
2022-10-31T01:21:56.234Z,13.80
2022-10-31T01:24:23.051Z,8.88
2022-10-31T01:26:49.616Z,21.52
2022-10-31T01:29:16.232Z,3.75
2022-10-31T01:31:42.729Z,22.00
2022-10-31T01:34:14.030Z,11.02
2022-10-31T01:36:41.085Z,9.75
2022-10-31T01:39:11.222Z,10.20
2022-10-31T01:41:40.534Z,7.25
2022-10-31T01:44:16.042Z,6.45
2022-10-31T01:46:48.118Z,8.80
2022-10-31T01:49:43.879Z,9.10
2022-10-31T01:52:31.748Z,5.20
2022-10-31T01:55:09.807Z,10.07
2022-10-31T01:57:41.317Z,13.68
2022-10-31T02:00:13.274Z,15.55
2022-10-31T02:02:40.165Z,6.03
2022-10-31T02:05:11.554Z,5.70
2022-10-31T02:07:46.837Z,6.03
2022-10-31T02:10:13.663Z,4.85
2022-10-31T02:12:41.909Z,4.35
2022-10-31T02:15:09.573Z,12.77
2022-10-31T02:17:36.287Z,4.35
2022-10-31T02:20:22.005Z,7.38
2022-10-31T02:22:57.456Z,9.93
2022-10-31T02:25:58.029Z,6.00
2022-10-31T02:29:01.903Z,4.28
2022-10-31T02:31:34.695Z,3.97
2022-10-31T02:34:13.812Z,4.30
2022-10-31T02:36:52.416Z,2.88
2022-10-31T02:39:23.921Z,3.75
2022-10-31T02:42:02.795Z,4.57
2022-10-31T02:44:44.084Z,3.70
2022-10-31T02:47:15.640Z,3.42
2022-10-31T02:49:45.125Z,2.20
2022-10-31T02:52:32.028Z,3.13
2022-10-31T02:54:58.845Z,2.80
2022-10-31T02:57:34.765Z,3.03
2022-10-31T03:00:11.008Z,3.28
2022-10-31T03:03:08.838Z,2.08
2022-10-31T03:05:47.317Z,1.77
2022-10-31T03:08:35.667Z,2.50
2022-10-31T03:11:07.838Z,4.10
2022-10-31T03:13:46.541Z,2.65
2022-10-31T03:16:22.159Z,4.35
2022-10-31T03:18:54.818Z,3.55
2022-10-31T03:21:26.078Z,2.43
2022-10-31T03:23:54.856Z,3.78
2022-10-31T03:26:23.057Z,2.80
2022-10-31T03:29:06.184Z,2.53
2022-10-31T03:32:08.638Z,1.90
2022-10-31T03:34:38.071Z,2.58
2022-10-31T03:37:08.814Z,2.35
2022-10-31T03:39:38.477Z,2.22
2022-10-31T03:42:14.880Z,2.55
2022-10-31T03:44:46.133Z,2.03
2022-10-31T03:47:13.307Z,2.10
2022-10-31T03:49:40.216Z,2.17
2022-10-31T03:52:33.567Z,2.97
2022-10-31T03:55:13.853Z,2.65
2022-10-31T03:58:00.675Z,1.90
2022-10-31T04:00:27.701Z,1.90
2022-10-31T04:03:05.437Z,4.45
2022-10-31T04:05:32.851Z,3.40
2022-10-31T04:08:02.049Z,2.60
2022-10-31T04:10:33.025Z,3.17
2022-10-31T04:13:07.112Z,2.38
2022-10-31T04:15:34.906Z,2.67
2022-10-31T04:18:04.745Z,1.90
2022-10-31T04:20:37.039Z,2.63
2022-10-31T04:23:04.670Z,1.98
2022-10-31T04:25:31.340Z,2.50
2022-10-31T04:27:58.181Z,2.08
2022-10-31T04:30:24.926Z,5.25
2022-10-31T04:32:51.434Z,2.25
2022-10-31T04:35:18.051Z,1.58
2022-10-31T04:37:44.570Z,1.73
2022-10-31T04:40:11.817Z,2.35
2022-10-31T04:42:38.562Z,3.75
2022-10-31T04:45:05.622Z,2.70
2022-10-31T04:47:34.368Z,3.85
2022-10-31T04:50:01.453Z,4.93
2022-10-31T04:52:27.940Z,2.45
2022-10-31T04:54:54.514Z,2.83
2022-10-31T04:57:21.012Z,2.25
2022-10-31T04:59:47.605Z,2.45
2022-10-31T05:02:14.300Z,1.98
2022-10-31T05:04:40.906Z,2.28
2022-10-31T05:07:07.437Z,2.47
2022-10-31T05:09:33.998Z,3.92
2022-10-31T05:12:00.661Z,3.15
2022-10-31T05:14:27.158Z,2.25
2022-10-31T05:16:53.672Z,2.90
2022-10-31T05:19:20.166Z,1.80
2022-10-31T05:21:46.681Z,2.20
2022-10-31T05:24:13.244Z,2.10
2022-10-31T05:26:39.777Z,1.67
2022-10-31T05:29:06.286Z,2.65
2022-10-31T05:31:32.904Z,2.40
2022-10-31T05:33:59.919Z,3.40
2022-10-31T05:36:26.416Z,3.05
2022-10-31T05:38:52.921Z,2.40
2022-10-31T05:41:19.475Z,3.42
2022-10-31T05:43:46.771Z,3.95
2022-10-31T05:46:13.271Z,3.17
2022-10-31T05:48:39.772Z,5.05
2022-10-31T05:51:06.337Z,4.80
2022-10-31T05:53:32.843Z,6.80
2022-10-31T05:55:59.386Z,4.55
2022-10-31T05:58:25.932Z,3.15
2022-10-31T06:00:52.583Z,3.35
2022-10-31T06:03:19.105Z,2.38
2022-10-31T06:05:49.239Z,2.92
2022-10-31T06:08:18.925Z,2.22
2022-10-31T06:10:45.538Z,3.30
2022-10-31T06:13:12.043Z,2.45
2022-10-31T06:15:38.591Z,2.47
2022-10-31T06:18:06.690Z,2.08
2022-10-31T06:20:34.470Z,4.05
2022-10-31T06:23:01.920Z,4.43
2022-10-31T06:25:28.966Z,4.72
2022-10-31T06:27:56.006Z,4.93
2022-10-31T06:30:22.626Z,1.88
2022-10-31T06:32:50.421Z,3.28
2022-10-31T06:35:17.260Z,3.30
2022-10-31T06:37:46.747Z,4.00
2022-10-31T06:40:14.765Z,2.25
2022-10-31T06:42:41.301Z,3.97
2022-10-31T06:45:08.105Z,3.05
2022-10-31T06:47:38.062Z,3.45
2022-10-31T06:50:12.378Z,4.28
2022-10-31T06:52:38.922Z,6.25
2022-10-31T06:55:05.828Z,4.00
2022-10-31T06:57:32.391Z,3.08
2022-10-31T06:59:59.151Z,2.60
2022-10-31T07:02:25.750Z,2.78
2022-10-31T07:04:52.329Z,2.95
2022-10-31T07:07:18.800Z,2.35
2022-10-31T07:09:45.329Z,2.33
2022-10-31T07:12:11.860Z,2.38
2022-10-31T07:14:38.355Z,2.63
2022-10-31T07:17:04.870Z,3.38
2022-10-31T07:19:31.386Z,2.15
2022-10-31T07:21:57.965Z,3.33
2022-10-31T07:24:24.492Z,2.30
2022-10-31T07:26:51.020Z,2.35
2022-10-31T07:29:17.562Z,2.70
2022-10-31T07:31:45.143Z,3.10
2022-10-31T07:34:11.645Z,2.25
2022-10-31T07:36:38.145Z,3.10
2022-10-31T07:39:04.696Z,2.65
2022-10-31T07:41:31.211Z,3.10
2022-10-31T07:43:57.732Z,2.20
2022-10-31T07:46:24.249Z,2.50
2022-10-31T07:48:50.770Z,2.00
2022-10-31T07:51:17.274Z,2.53
2022-10-31T07:53:43.768Z,2.72
2022-10-31T07:56:10.319Z,2.47
2022-10-31T07:58:36.843Z,2.28
2022-10-31T08:01:03.606Z,3.20
2022-10-31T08:03:30.729Z,5.40
2022-10-31T08:05:58.885Z,2.35
2022-10-31T08:08:25.512Z,2.13
2022-10-31T08:10:52.031Z,4.38
2022-10-31T08:13:18.563Z,3.20
2022-10-31T08:15:45.557Z,2.72
2022-10-31T08:18:15.982Z,4.05
2022-10-31T08:20:45.868Z,3.72
2022-10-31T08:23:13.635Z,2.95
2022-10-31T08:25:41.021Z,4.72
2022-10-31T08:28:09.978Z,2.40
2022-10-31T08:30:38.078Z,3.15
2022-10-31T08:33:10.838Z,2.67
2022-10-31T08:35:37.690Z,5.88
2022-10-31T08:38:04.975Z,2.95
2022-10-31T08:40:33.334Z,7.05
2022-10-31T08:43:01.756Z,2.67
2022-10-31T08:45:29.930Z,2.67
2022-10-31T08:48:01.643Z,2.63
2022-10-31T08:50:30.206Z,3.90
2022-10-31T08:53:12.357Z,3.92
2022-10-31T08:55:40.629Z,2.92
2022-10-31T08:58:10.682Z,3.28
2022-10-31T09:00:37.536Z,3.15
2022-10-31T09:03:06.813Z,2.80
2022-10-31T09:05:33.915Z,3.13
2022-10-31T09:08:02.342Z,4.50
2022-10-31T09:10:30.490Z,3.13
2022-10-31T09:12:58.771Z,2.88
2022-10-31T09:15:27.538Z,3.15
2022-10-31T09:17:54.285Z,2.75
2022-10-31T09:20:21.249Z,2.72
2022-10-31T09:22:47.806Z,2.90
2022-10-31T09:25:14.826Z,2.65
2022-10-31T09:27:41.406Z,3.10
2022-10-31T09:30:09.509Z,3.47
2022-10-31T09:32:35.995Z,3.33
2022-10-31T09:35:02.586Z,3.25
2022-10-31T09:37:29.135Z,4.22
2022-10-31T09:39:55.667Z,3.65
2022-10-31T09:42:50.637Z,2.28
2022-10-31T09:45:40.124Z,2.67
2022-10-31T09:48:29.092Z,3.10
2022-10-31T09:51:08.310Z,2.95
2022-10-31T09:53:46.386Z,2.92
2022-10-31T09:56:16.445Z,3.45
2022-10-31T09:58:46.785Z,3.10
2022-10-31T10:01:42.875Z,6.25
2022-10-31T10:04:19.863Z,3.72
2022-10-31T10:06:50.733Z,3.30
2022-10-31T10:09:17.365Z,4.00
2022-10-31T10:12:21.786Z,3.47
2022-10-31T10:15:13.077Z,3.38
2022-10-31T10:17:44.451Z,3.55
2022-10-31T10:20:27.845Z,3.92
2022-10-31T10:23:18.676Z,3.03
2022-10-31T10:25:51.037Z,4.60
2022-10-31T10:28:20.305Z,2.97
2022-10-31T10:31:22.075Z,4.28
2022-10-31T10:34:02.750Z,3.58
2022-10-31T10:36:40.757Z,2.97
2022-10-31T10:39:23.740Z,6.97
2022-10-31T10:42:10.490Z,4.30
2022-10-31T10:45:05.306Z,6.10
2022-10-31T10:47:43.738Z,3.90
2022-10-31T10:50:20.802Z,3.40
2022-10-31T10:53:02.854Z,3.78
2022-10-31T10:56:31.720Z,7.75
2022-10-31T10:58:58.803Z,6.43
2022-10-31T11:01:25.826Z,3.55
2022-10-31T11:03:52.336Z,3.90
2022-10-31T11:06:26.919Z,3.17
2022-10-31T11:08:54.262Z,4.32
2022-10-31T11:11:31.458Z,3.40
2022-10-31T11:14:06.707Z,3.70
2022-10-31T11:16:40.955Z,6.18
2022-10-31T11:19:12.862Z,3.80
2022-10-31T11:21:39.514Z,5.22
2022-10-31T11:24:12.226Z,3.25
2022-10-31T11:26:41.231Z,4.78
2022-10-31T11:29:28.152Z,4.25
2022-10-31T11:31:57.360Z,4.60
2022-10-31T11:34:33.123Z,4.32
2022-10-31T11:37:10.482Z,4.68
2022-10-31T11:39:42.953Z,5.72
2022-10-31T11:42:09.666Z,6.93
2022-10-31T11:44:36.517Z,5.78
2022-10-31T11:47:07.147Z,7.40
2022-10-31T11:49:36.551Z,5.07
2022-10-31T11:52:07.832Z,5.28
2022-10-31T11:55:00.267Z,4.43
2022-10-31T11:57:29.951Z,5.97
2022-10-31T11:59:59.363Z,5.00
2022-10-31T12:02:27.028Z,5.30
2022-10-31T12:05:17.914Z,4.38
2022-10-31T12:07:44.958Z,8.65
2022-10-31T12:10:12.945Z,6.43
2022-10-31T12:12:58.447Z,5.43
2022-10-31T12:15:37.809Z,5.75
2022-10-31T12:18:16.138Z,6.30
2022-10-31T12:20:54.718Z,7.28
2022-10-31T12:23:35.044Z,6.80
2022-10-31T12:26:19.567Z,8.10
2022-10-31T12:28:57.909Z,6.10
2022-10-31T12:31:54.029Z,6.43
2022-10-31T12:34:57.251Z,5.82
2022-10-31T12:37:36.934Z,6.97
2022-10-31T12:40:06.090Z,9.27
2022-10-31T12:42:41.623Z,6.80
2022-10-31T12:45:14.017Z,7.47
2022-10-31T12:47:51.444Z,8.23
2022-10-31T12:50:20.639Z,8.40
2022-10-31T12:53:12.160Z,6.80
2022-10-31T12:55:46.719Z,7.22
2022-10-31T12:58:25.077Z,6.93
2022-10-31T13:01:03.041Z,8.45
2022-10-31T13:03:36.872Z,8.10
2022-10-31T13:06:15.025Z,7.80
2022-10-31T13:08:50.875Z,9.90
2022-10-31T13:11:44.535Z,10.30
2022-10-31T13:14:28.176Z,8.30
2022-10-31T13:16:57.496Z,7.20
2022-10-31T13:19:29.455Z,7.82
2022-10-31T13:22:07.558Z,8.98
2022-10-31T13:24:55.977Z,7.40
2022-10-31T13:27:34.837Z,10.43
2022-10-31T13:30:13.238Z,9.00
2022-10-31T13:32:45.485Z,6.80
2022-10-31T13:35:19.695Z,5.80
2022-10-31T13:37:56.767Z,8.05
2022-10-31T13:40:49.124Z,7.72
2022-10-31T13:43:28.309Z,18.75
2022-10-31T13:45:56.337Z,9.07
2022-10-31T13:48:25.701Z,9.35
2022-10-31T13:51:02.961Z,10.57
2022-10-31T13:54:06.439Z,8.38
2022-10-31T13:56:35.239Z,8.93
2022-10-31T13:59:07.881Z,9.35
2022-10-31T14:01:34.904Z,9.33
2022-10-31T14:04:20.625Z,8.40
2022-10-31T14:07:05.721Z,10.10
2022-10-31T14:09:39.611Z,8.73
2022-10-31T14:12:45.617Z,6.60
2022-10-31T14:15:19.661Z,8.98
2022-10-31T14:17:49.937Z,7.57
2022-10-31T14:20:16.397Z,6.97
2022-10-31T14:22:43.326Z,6.60
2022-10-31T14:25:30.385Z,6.47
2022-10-31T14:27:58.571Z,7.13
2022-10-31T14:30:27.674Z,6.63
2022-10-31T14:32:59.078Z,10.90
2022-10-31T14:35:36.751Z,8.32
2022-10-31T14:38:15.277Z,9.00
2022-10-31T14:41:38.999Z,7.25
2022-10-31T14:44:35.874Z,9.68
2022-10-31T14:47:20.352Z,10.30
2022-10-31T14:50:08.590Z,10.00
2022-10-31T14:52:38.331Z,9.52
2022-10-31T14:55:12.083Z,8.70
2022-10-31T14:57:44.445Z,8.43
2022-10-31T15:00:22.708Z,11.77
2022-10-31T15:03:16.999Z,8.48
2022-10-31T15:05:52.686Z,7.55
2022-10-31T15:08:28.669Z,8.68
2022-10-31T15:10:55.240Z,7.43
2022-10-31T15:13:23.232Z,7.65
2022-10-31T15:15:55.597Z,7.40
2022-10-31T15:18:28.121Z,7.45
2022-10-31T15:20:56.575Z,7.82
2022-10-31T15:23:27.210Z,6.97
2022-10-31T15:26:05.885Z,8.50
2022-10-31T15:28:32.875Z,10.10
2022-10-31T15:31:01.894Z,5.45
2022-10-31T15:33:45.240Z,11.13
2022-10-31T15:36:29.072Z,7.88
2022-10-31T15:38:58.737Z,9.02
2022-10-31T15:41:35.986Z,6.95
2022-10-31T15:44:37.036Z,9.73
2022-10-31T15:47:17.352Z,7.18
2022-10-31T15:49:53.626Z,6.85
2022-10-31T15:52:29.179Z,8.18
2022-10-31T15:55:18.794Z,8.10
2022-10-31T15:57:51.138Z,7.53
2022-10-31T16:00:29.784Z,10.77
2022-10-31T16:03:23.988Z,10.18
2022-10-31T16:05:56.102Z,7.93
2022-10-31T16:08:26.811Z,7.93
2022-10-31T16:10:53.940Z,5.90
2022-10-31T16:13:27.242Z,7.88
2022-10-31T16:16:21.230Z,11.35
2022-10-31T16:18:45.021Z,5.78
2022-10-31T16:21:11.965Z,8.43
2022-10-31T16:23:45.469Z,7.30
2022-10-31T16:26:18.887Z,7.72
2022-10-31T16:29:03.439Z,9.32
2022-10-31T16:31:38.803Z,9.25
2022-10-31T16:34:15.939Z,12.25
2022-10-31T16:36:42.985Z,13.88
2022-10-31T16:39:09.969Z,13.68
2022-10-31T16:41:40.778Z,9.15
2022-10-31T16:44:24.935Z,11.70
2022-10-31T16:47:13.257Z,12.00
2022-10-31T16:49:39.920Z,23.73
2022-10-31T16:52:06.737Z,21.38
2022-10-31T16:54:33.251Z,12.25
2022-10-31T16:57:00.966Z,6.93
2022-10-31T16:59:28.077Z,8.80
2022-10-31T17:01:56.075Z,5.97
2022-10-31T17:04:22.874Z,7.43
2022-10-31T17:06:49.469Z,7.50
2022-10-31T17:09:16.151Z,6.85
2022-10-31T17:11:49.822Z,16.27
2022-10-31T17:14:17.802Z,8.98
2022-10-31T17:16:44.448Z,9.70
2022-10-31T17:19:11.929Z,7.45
2022-10-31T17:21:39.457Z,19.55
2022-10-31T17:24:06.294Z,11.82
2022-10-31T17:26:32.846Z,19.13
2022-10-31T17:29:01.965Z,17.88
2022-10-31T17:31:31.391Z,90.40
2022-10-31T17:34:02.059Z,24.13
2022-10-31T17:36:30.340Z,18.48
2022-10-31T17:38:56.824Z,23.48
2022-10-31T17:41:23.340Z,8.15
2022-10-31T17:43:54.328Z,9.07
2022-10-31T17:46:20.830Z,10.45
2022-10-31T17:48:47.353Z,8.05
2022-10-31T17:51:13.932Z,8.23
2022-10-31T17:53:40.503Z,7.97
2022-10-31T17:56:08.983Z,6.13
2022-10-31T17:58:36.978Z,7.07
2022-10-31T18:01:16.305Z,8.55
2022-10-31T18:03:43.467Z,7.93
2022-10-31T18:06:11.355Z,7.97
2022-10-31T18:08:39.904Z,8.90
2022-10-31T18:11:16.314Z,7.15
2022-10-31T18:13:42.972Z,5.45
2022-10-31T18:16:11.375Z,7.07
2022-10-31T18:18:37.998Z,5.55
2022-10-31T18:21:05.132Z,5.68
2022-10-31T18:23:31.753Z,6.05
2022-10-31T18:25:58.294Z,9.77
2022-10-31T18:28:24.874Z,6.38
2022-10-31T18:30:51.377Z,5.72
2022-10-31T18:33:17.863Z,4.45
2022-10-31T18:35:44.524Z,5.85
2022-10-31T18:38:11.032Z,5.38
2022-10-31T18:40:37.545Z,8.80
2022-10-31T18:43:04.104Z,6.22
2022-10-31T18:45:41.642Z,4.75
2022-10-31T18:48:14.358Z,5.20
2022-10-31T18:50:41.061Z,4.22
2022-10-31T18:53:07.661Z,6.00
2022-10-31T18:55:34.293Z,5.72
2022-10-31T18:58:00.805Z,6.28
2022-10-31T19:00:27.325Z,5.93
2022-10-31T19:02:56.441Z,4.93
2022-10-31T19:05:23.292Z,6.43
2022-10-31T19:07:49.834Z,7.07
2022-10-31T19:10:16.383Z,4.88
2022-10-31T19:12:42.935Z,7.65
2022-10-31T19:15:09.763Z,5.00
2022-10-31T19:17:36.308Z,5.60
2022-10-31T19:20:03.634Z,5.78
2022-10-31T19:22:31.933Z,6.25
2022-10-31T19:24:58.453Z,6.47
2022-10-31T19:27:27.560Z,5.50
2022-10-31T19:29:54.312Z,5.07
2022-10-31T19:32:20.844Z,7.22
2022-10-31T19:34:47.356Z,8.50
2022-10-31T19:37:13.898Z,5.68
2022-10-31T19:39:44.100Z,6.60
2022-10-31T19:42:11.857Z,6.28
2022-10-31T19:44:38.369Z,12.70
2022-10-31T19:47:05.242Z,6.88
2022-10-31T19:49:31.850Z,8.88
2022-10-31T19:51:58.386Z,8.45
2022-10-31T19:54:24.967Z,8.23
2022-10-31T19:56:51.465Z,6.30
2022-10-31T19:59:18.034Z,7.15
2022-10-31T20:01:44.701Z,7.20
2022-10-31T20:04:11.467Z,8.32
2022-10-31T20:06:40.593Z,9.02
2022-10-31T20:09:10.486Z,10.18
2022-10-31T20:11:38.840Z,11.38
2022-10-31T20:14:06.302Z,7.65
2022-10-31T20:16:33.306Z,8.68
2022-10-31T20:19:00.136Z,8.90
2022-10-31T20:21:29.437Z,7.15
2022-10-31T20:24:01.376Z,7.22
2022-10-31T20:26:29.013Z,7.57
2022-10-31T20:28:57.183Z,9.80
2022-10-31T20:31:26.321Z,7.32
2022-10-31T20:33:53.653Z,8.25
2022-10-31T20:36:23.419Z,6.78
2022-10-31T20:38:52.095Z,7.68
2022-10-31T20:41:19.140Z,7.00
2022-10-31T20:43:45.750Z,9.75
2022-10-31T20:46:14.996Z,7.93
2022-10-31T20:48:42.306Z,8.90
2022-10-31T20:51:13.410Z,8.18
2022-10-31T20:53:40.246Z,7.38
2022-10-31T20:56:15.017Z,5.65
2022-10-31T20:58:43.175Z,6.95
2022-10-31T21:01:31.812Z,8.43
2022-10-31T21:03:59.000Z,11.80
2022-10-31T21:06:26.468Z,5.97
2022-10-31T21:08:53.923Z,8.02
2022-10-31T21:11:22.693Z,9.13
2022-10-31T21:13:49.738Z,7.75
2022-10-31T21:16:19.707Z,7.03
2022-10-31T21:18:47.741Z,8.40
2022-10-31T21:21:17.835Z,5.82
2022-10-31T21:23:44.902Z,7.57
2022-10-31T21:26:15.206Z,6.97
2022-10-31T21:28:42.162Z,6.13
2022-10-31T21:31:12.289Z,6.63
2022-10-31T21:33:39.153Z,7.03
2022-10-31T21:36:06.462Z,6.05
2022-10-31T21:38:33.762Z,6.80
2022-10-31T21:41:14.677Z,9.15
2022-10-31T21:43:44.145Z,7.60
2022-10-31T21:46:19.493Z,8.63
2022-10-31T21:48:46.834Z,6.93
2022-10-31T21:51:21.734Z,7.93
2022-10-31T21:54:07.532Z,7.00
2022-10-31T21:56:34.438Z,5.70
2022-10-31T21:59:01.264Z,9.40
2022-10-31T22:01:29.423Z,8.80
2022-10-31T22:03:56.845Z,7.95
2022-10-31T22:06:26.553Z,5.97
2022-10-31T22:08:54.417Z,8.73
2022-10-31T22:11:21.691Z,7.88
2022-10-31T22:13:49.670Z,9.57
2022-10-31T22:16:21.183Z,6.47
2022-10-31T22:18:48.711Z,8.32
2022-10-31T22:21:17.493Z,6.90
2022-10-31T22:23:44.990Z,6.38
2022-10-31T22:26:17.269Z,6.93
2022-10-31T22:28:45.982Z,9.05
2022-10-31T22:31:18.696Z,7.35
2022-10-31T22:33:46.698Z,10.37
2022-10-31T22:36:16.813Z,6.47
2022-10-31T22:38:44.000Z,7.38
2022-10-31T22:41:12.792Z,36.80
2022-10-31T22:43:39.757Z,53.53
2022-10-31T22:46:08.083Z,11.05
2022-10-31T22:48:40.104Z,9.88
2022-10-31T22:51:13.833Z,8.93
2022-10-31T22:53:41.248Z,10.95
2022-10-31T22:56:11.941Z,34.00
2022-10-31T22:58:38.505Z,24.05
2022-10-31T23:01:10.392Z,54.75
2022-10-31T23:03:37.657Z,18.48
2022-10-31T23:06:05.901Z,7.10
2022-10-31T23:08:35.607Z,8.68
2022-10-31T23:11:04.355Z,10.93
2022-10-31T23:13:49.602Z,7.15
2022-10-31T23:16:16.123Z,7.90
2022-10-31T23:18:50.047Z,7.03
2022-10-31T23:21:36.922Z,8.25
2022-10-31T23:24:03.909Z,8.20
2022-10-31T23:26:49.098Z,14.15
2022-10-31T23:29:15.617Z,7.65
2022-10-31T23:31:42.142Z,6.95
2022-10-31T23:34:08.652Z,6.60
2022-10-31T23:36:35.245Z,11.38
2022-10-31T23:39:01.743Z,6.68
2022-10-31T23:41:28.306Z,9.65
2022-10-31T23:43:55.069Z,10.60
2022-10-31T23:46:21.574Z,7.53
2022-10-31T23:48:49.418Z,6.97
2022-10-31T23:51:16.015Z,11.32
2022-10-31T23:53:46.299Z,9.80
2022-10-31T23:56:13.583Z,5.63
2022-10-31T23:58:40.695Z,5.88
